Time;durP1;ratioP1;P1;durP2;ratioP2;P2;SDS_P1;SDS_P2;PMS_P1;PMS_P2;Temp;Humidity;BMP_temperature;BMP_pressure;BME280_temperature;BME280_humidity;BME280_pressure;Samples;Min_cycle;Max_cycle;Signal;HPM_P1;HPM_P2
2021/09/18 00:01:05;;;;;;;5.90;2.38;;;;;;;;;;5037629;28;20446;-72
2021/09/18 00:03:50;;;;;;;6.03;2.40;;;;;;;;;;5049771;28;20048;-71
2021/09/18 00:06:35;;;;;;;5.30;2.53;;;;;;;;;;5047425;28;20060;-71
2021/09/18 00:09:19;;;;;;;4.93;2.10;;;;;;;;;;5044291;28;20553;-72
2021/09/18 00:12:04;;;;;;;5.57;2.25;;;;;;;;;;5030391;28;20119;-71
2021/09/18 00:14:49;;;;;;;5.68;2.40;;;;;;;;;;5012774;28;20874;-71
2021/09/18 00:17:33;;;;;;;4.35;2.10;;;;;;;;;;5019569;28;20457;-71
2021/09/18 00:20:18;;;;;;;3.17;2.00;;;;;;;;;;5044730;28;20099;-72
2021/09/18 00:23:03;;;;;;;7.22;2.42;;;;;;;;;;5045691;28;20036;-71
2021/09/18 00:25:47;;;;;;;8.40;2.33;;;;;;;;;;5045752;28;20099;-71
2021/09/18 00:28:31;;;;;;;5.45;2.00;;;;;;;;;;5045936;28;20039;-72
2021/09/18 00:31:16;;;;;;;5.20;2.00;;;;;;;;;;5030922;28;20496;-71
2021/09/18 00:34:01;;;;;;;5.60;2.33;;;;;;;;;;5045650;28;20047;-71
2021/09/18 00:36:45;;;;;;;5.63;2.33;;;;;;;;;;5044837;28;20266;-71
2021/09/18 00:39:30;;;;;;;5.55;2.00;;;;;;;;;;5045720;28;20110;-71
2021/09/18 00:42:14;;;;;;;5.68;2.38;;;;;;;;;;5047033;28;20124;-71
2021/09/18 00:44:59;;;;;;;4.07;2.17;;;;;;;;;;5045525;28;20083;-71
2021/09/18 00:47:43;;;;;;;5.93;2.20;;;;;;;;;;5045182;28;20074;-71
2021/09/18 00:50:28;;;;;;;3.88;1.98;;;;;;;;;;5046701;28;20129;-72
2021/09/18 00:53:12;;;;;;;4.78;2.05;;;;;;;;;;5026980;28;20080;-71
2021/09/18 00:55:57;;;;;;;5.50;2.05;;;;;;;;;;5014989;28;20410;-71
2021/09/18 00:58:41;;;;;;;4.88;2.10;;;;;;;;;;5011897;28;20095;-71
2021/09/18 01:01:26;;;;;;;4.68;2.00;;;;;;;;;;5033362;28;20036;-71
2021/09/18 01:04:10;;;;;;;3.38;1.70;;;;;;;;;;5045475;28;20106;-71
2021/09/18 01:06:55;;;;;;;4.03;2.22;;;;;;;;;;5045929;28;20132;-72
2021/09/18 01:09:39;;;;;;;5.13;2.20;;;;;;;;;;5044915;28;20114;-71
2021/09/18 01:12:24;;;;;;;4.00;1.98;;;;;;;;;;5044742;28;20106;-71
2021/09/18 01:15:09;;;;;;;4.47;1.80;;;;;;;;;;5046061;28;20779;-71
2021/09/18 01:17:55;;;;;;;4.43;2.20;;;;;;;;;;5045631;28;20123;-71
2021/09/18 01:20:40;;;;;;;5.30;2.22;;;;;;;;;;5044640;28;20044;-72
2021/09/18 01:23:25;;;;;;;4.55;2.17;;;;;;;;;;5045187;28;20199;-73
2021/09/18 01:26:09;;;;;;;4.35;2.30;;;;;;;;;;5044059;28;20623;-71
2021/09/18 01:28:54;;;;;;;6.60;1.88;;;;;;;;;;5031172;28;20067;-71
2021/09/18 01:31:39;;;;;;;5.15;2.03;;;;;;;;;;5041816;28;20041;-72
2021/09/18 01:34:24;;;;;;;5.78;2.15;;;;;;;;;;5041374;28;20061;-71
2021/09/18 01:37:09;;;;;;;4.55;2.47;;;;;;;;;;5030946;28;20087;-72
2021/09/18 01:39:53;;;;;;;3.20;2.03;;;;;;;;;;5043820;28;20157;-71
2021/09/18 01:42:42;;;;;;;4.47;2.10;;;;;;;;;;5044468;28;20083;-71
2021/09/18 01:45:27;;;;;;;3.58;1.85;;;;;;;;;;5028904;28;20040;-71
2021/09/18 01:48:13;;;;;;;4.28;1.92;;;;;;;;;;5010526;28;20297;-74
2021/09/18 01:51:01;;;;;;;5.20;1.90;;;;;;;;;;5026993;28;20585;-71
2021/09/18 01:53:45;;;;;;;5.63;2.10;;;;;;;;;;5024630;28;20052;-71
2021/09/18 01:56:30;;;;;;;4.93;2.20;;;;;;;;;;5034388;28;20043;-71
2021/09/18 01:59:15;;;;;;;4.30;2.00;;;;;;;;;;5045483;28;20627;-71
2021/09/18 02:01:59;;;;;;;5.00;2.00;;;;;;;;;;5044082;28;20043;-71
2021/09/18 02:04:44;;;;;;;4.15;2.45;;;;;;;;;;5044155;28;20039;-71
2021/09/18 02:07:28;;;;;;;3.53;2.00;;;;;;;;;;5043185;28;20450;-72
2021/09/18 02:10:14;;;;;;;5.15;1.88;;;;;;;;;;5047422;28;20044;-71
2021/09/18 02:13:03;;;;;;;4.15;2.13;;;;;;;;;;5012831;28;20235;-71
2021/09/18 02:15:48;;;;;;;4.25;2.40;;;;;;;;;;5045110;28;20043;-71
2021/09/18 02:18:32;;;;;;;4.22;2.35;;;;;;;;;;5014543;28;20080;-71
2021/09/18 02:21:17;;;;;;;4.63;2.20;;;;;;;;;;5046056;28;20098;-71
2021/09/18 02:24:01;;;;;;;5.07;2.40;;;;;;;;;;5031701;28;20511;-71
2021/09/18 02:26:45;;;;;;;5.95;2.10;;;;;;;;;;5045965;28;20043;-71
2021/09/18 02:29:30;;;;;;;7.30;2.33;;;;;;;;;;5045398;28;20040;-71
2021/09/18 02:32:14;;;;;;;6.07;2.67;;;;;;;;;;5031846;28;20047;-71
2021/09/18 02:34:58;;;;;;;4.50;2.75;;;;;;;;;;5045797;28;20032;-71
2021/09/18 02:37:43;;;;;;;7.60;2.55;;;;;;;;;;5031561;28;20035;-71
2021/09/18 02:40:28;;;;;;;5.32;2.42;;;;;;;;;;5046923;28;20469;-71
2021/09/18 02:43:14;;;;;;;5.32;2.53;;;;;;;;;;5021350;28;20090;-71
2021/09/18 02:45:58;;;;;;;4.88;2.42;;;;;;;;;;5045495;28;20048;-71
2021/09/18 02:48:43;;;;;;;4.75;2.70;;;;;;;;;;5045090;28;20035;-71
2021/09/18 02:51:27;;;;;;;5.63;2.63;;;;;;;;;;5034224;28;20114;-71
2021/09/18 02:54:12;;;;;;;5.53;2.88;;;;;;;;;;5045364;28;20125;-71
2021/09/18 02:56:57;;;;;;;5.07;2.58;;;;;;;;;;5046637;28;20090;-71
2021/09/18 02:59:41;;;;;;;5.72;2.92;;;;;;;;;;5026187;28;20834;-71
2021/09/18 03:02:26;;;;;;;5.72;3.20;;;;;;;;;;5045919;28;20067;-71
2021/09/18 03:05:10;;;;;;;5.45;2.97;;;;;;;;;;5026271;28;20068;-71
2021/09/18 03:07:55;;;;;;;6.35;2.80;;;;;;;;;;5045386;28;20047;-71
2021/09/18 03:10:40;;;;;;;5.90;2.80;;;;;;;;;;5022524;28;20090;-71
2021/09/18 03:13:24;;;;;;;5.10;2.78;;;;;;;;;;5045016;28;20048;-71
2021/09/18 03:16:09;;;;;;;6.07;3.03;;;;;;;;;;5043103;28;20091;-71
2021/09/18 03:18:53;;;;;;;4.57;2.50;;;;;;;;;;5044987;28;20112;-70
2021/09/18 03:21:37;;;;;;;9.13;3.47;;;;;;;;;;5044352;28;20451;-71
2021/09/18 03:24:22;;;;;;;7.90;3.33;;;;;;;;;;5039446;28;20731;-71
2021/09/18 03:27:06;;;;;;;6.32;3.13;;;;;;;;;;5025113;28;20410;-71
2021/09/18 03:29:51;;;;;;;6.22;3.35;;;;;;;;;;5035747;28;20143;-71
2021/09/18 03:32:35;;;;;;;6.03;3.33;;;;;;;;;;5046500;28;20635;-71
2021/09/18 03:35:20;;;;;;;7.40;3.47;;;;;;;;;;5047480;28;20048;-71
2021/09/18 03:38:04;;;;;;;7.13;3.50;;;;;;;;;;5048996;28;20040;-71
2021/09/18 03:40:49;;;;;;;7.32;3.53;;;;;;;;;;5048371;28;20163;-71
2021/09/18 03:43:34;;;;;;;7.07;3.25;;;;;;;;;;5050126;28;20067;-71
2021/09/18 03:46:18;;;;;;;5.97;3.50;;;;;;;;;;5044212;28;20048;-71
2021/09/18 03:49:03;;;;;;;5.63;3.40;;;;;;;;;;5049664;28;20505;-71
2021/09/18 03:51:47;;;;;;;6.28;3.40;;;;;;;;;;5046457;28;20401;-71
2021/09/18 03:54:32;;;;;;;6.38;3.78;;;;;;;;;;5046799;28;20048;-71
2021/09/18 03:57:16;;;;;;;7.75;3.70;;;;;;;;;;5046797;28;20036;-71
2021/09/18 04:00:00;;;;;;;7.30;3.55;;;;;;;;;;5038406;28;20094;-71
2021/09/18 04:02:45;;;;;;;7.45;3.80;;;;;;;;;;5048409;28;20087;-71
2021/09/18 04:05:29;;;;;;;6.63;3.72;;;;;;;;;;5046335;28;20048;-71
2021/09/18 04:08:14;;;;;;;6.35;4.05;;;;;;;;;;5046996;28;20086;-71
2021/09/18 04:10:58;;;;;;;7.20;3.50;;;;;;;;;;5045641;28;20047;-71
2021/09/18 04:13:43;;;;;;;7.35;3.95;;;;;;;;;;5028327;28;20106;-71
2021/09/18 04:16:27;;;;;;;8.63;3.70;;;;;;;;;;5037667;28;20035;-71
2021/09/18 04:19:12;;;;;;;7.65;4.28;;;;;;;;;;5047754;28;20036;-72
2021/09/18 04:21:56;;;;;;;7.30;3.78;;;;;;;;;;5049364;28;20044;-71
2021/09/18 04:24:41;;;;;;;8.32;3.90;;;;;;;;;;5048293;28;20074;-71
2021/09/18 04:27:25;;;;;;;7.65;3.70;;;;;;;;;;5034050;28;20043;-71
2021/09/18 04:30:10;;;;;;;8.48;4.20;;;;;;;;;;5032372;28;20516;-71
2021/09/18 04:32:55;;;;;;;8.35;4.05;;;;;;;;;;5048015;28;20044;-71
2021/09/18 04:35:40;;;;;;;7.90;4.05;;;;;;;;;;5047871;28;20334;-71
2021/09/18 04:38:24;;;;;;;6.00;4.05;;;;;;;;;;5048039;28;20072;-72
2021/09/18 04:41:09;;;;;;;5.97;3.88;;;;;;;;;;5047364;28;20040;-70
2021/09/18 04:43:54;;;;;;;6.25;3.80;;;;;;;;;;5031125;28;20106;-72
2021/09/18 04:46:38;;;;;;;6.68;3.78;;;;;;;;;;5046481;28;20130;-71
2021/09/18 04:49:23;;;;;;;8.18;4.53;;;;;;;;;;5022643;28;20170;-72
2021/09/18 04:52:07;;;;;;;7.60;4.43;;;;;;;;;;5041309;28;20505;-71
2021/09/18 04:54:53;;;;;;;6.63;4.13;;;;;;;;;;5045041;28;20090;-72
2021/09/18 04:57:38;;;;;;;5.50;3.58;;;;;;;;;;5038883;28;20107;-72
2021/09/18 05:00:23;;;;;;;6.55;4.03;;;;;;;;;;5044490;28;20410;-71
2021/09/18 05:03:08;;;;;;;6.32;3.70;;;;;;;;;;5044416;28;20097;-72
2021/09/18 05:05:52;;;;;;;7.97;3.50;;;;;;;;;;5025054;28;20114;-71
2021/09/18 05:08:37;;;;;;;5.47;4.00;;;;;;;;;;5031524;28;20406;-71
2021/09/18 05:11:21;;;;;;;6.05;3.58;;;;;;;;;;5044341;28;20525;-71
2021/09/18 05:14:06;;;;;;;6.07;3.70;;;;;;;;;;5044520;28;20537;-72
2021/09/18 05:16:50;;;;;;;6.20;3.80;;;;;;;;;;5043569;28;20043;-71
2021/09/18 05:19:35;;;;;;;5.82;3.42;;;;;;;;;;5025313;28;20040;-74
2021/09/18 05:22:19;;;;;;;4.68;3.33;;;;;;;;;;5039728;28;20040;-72
2021/09/18 05:25:05;;;;;;;7.10;3.95;;;;;;;;;;5044807;28;20144;-71
2021/09/18 05:27:49;;;;;;;6.90;3.95;;;;;;;;;;5027349;28;20079;-71
2021/09/18 05:30:34;;;;;;;6.38;3.58;;;;;;;;;;5037556;28;20064;-71
2021/09/18 05:33:18;;;;;;;6.28;3.90;;;;;;;;;;5024363;28;20137;-72
2021/09/18 05:36:03;;;;;;;4.90;3.47;;;;;;;;;;5041753;28;20043;-71
2021/09/18 05:38:47;;;;;;;6.15;4.00;;;;;;;;;;5040934;28;20671;-72
2021/09/18 05:41:32;;;;;;;4.85;3.55;;;;;;;;;;5028353;28;20051;-72
2021/09/18 05:44:17;;;;;;;5.28;3.50;;;;;;;;;;5029201;28;20121;-71
2021/09/18 05:47:01;;;;;;;4.85;3.22;;;;;;;;;;5045895;28;20086;-72
2021/09/18 05:49:46;;;;;;;5.25;3.47;;;;;;;;;;5043415;28;20040;-71
2021/09/18 05:52:32;;;;;;;5.75;3.70;;;;;;;;;;5043927;28;20047;-72
2021/09/18 05:55:16;;;;;;;5.55;3.53;;;;;;;;;;5045596;28;20099;-72
2021/09/18 05:58:01;;;;;;;5.22;3.60;;;;;;;;;;5032544;28;20043;-72
2021/09/18 06:00:45;;;;;;;4.35;3.40;;;;;;;;;;5043506;28;20043;-72
2021/09/18 06:03:30;;;;;;;4.57;3.20;;;;;;;;;;5045014;28;20098;-71
2021/09/18 06:06:15;;;;;;;4.72;3.40;;;;;;;;;;5044114;28;20043;-72
2021/09/18 06:08:59;;;;;;;5.00;3.15;;;;;;;;;;5030439;28;20513;-71
2021/09/18 06:11:44;;;;;;;4.32;3.25;;;;;;;;;;5014797;28;20119;-72
2021/09/18 06:14:28;;;;;;;4.35;3.10;;;;;;;;;;5043306;28;20508;-72
2021/09/18 06:17:13;;;;;;;4.78;3.53;;;;;;;;;;5044088;28;20044;-71
2021/09/18 06:19:57;;;;;;;4.78;3.25;;;;;;;;;;5020976;28;20115;-72
2021/09/18 06:22:42;;;;;;;5.15;3.20;;;;;;;;;;5030040;28;20044;-73
2021/09/18 06:25:26;;;;;;;4.53;2.90;;;;;;;;;;5044078;28;20086;-71
2021/09/18 06:28:11;;;;;;;4.03;2.97;;;;;;;;;;5044411;28;20095;-72
2021/09/18 06:30:55;;;;;;;4.43;3.00;;;;;;;;;;5044729;28;20047;-72
2021/09/18 06:33:40;;;;;;;4.80;2.80;;;;;;;;;;5044048;28;20051;-71
2021/09/18 06:36:24;;;;;;;3.85;2.92;;;;;;;;;;5025103;28;20040;-71
2021/09/18 06:39:09;;;;;;;4.32;3.15;;;;;;;;;;5033166;28;20048;-73
2021/09/18 06:41:53;;;;;;;4.07;2.95;;;;;;;;;;5023932;28;20117;-72
2021/09/18 06:44:38;;;;;;;4.35;3.10;;;;;;;;;;5027766;28;20794;-71
2021/09/18 06:47:23;;;;;;;5.50;3.33;;;;;;;;;;5035540;28;20107;-71
2021/09/18 06:50:08;;;;;;;4.40;2.90;;;;;;;;;;5018740;28;20048;-72
2021/09/18 06:52:52;;;;;;;4.68;2.92;;;;;;;;;;5035658;28;20080;-74
2021/09/18 06:55:37;;;;;;;3.97;2.72;;;;;;;;;;5042615;28;20036;-72
2021/09/18 06:58:22;;;;;;;4.07;2.80;;;;;;;;;;5043296;28;20051;-72
2021/09/18 07:01:06;;;;;;;3.80;2.90;;;;;;;;;;5034004;28;20131;-71
2021/09/18 07:03:51;;;;;;;4.05;3.10;;;;;;;;;;5046386;28;20513;-71
2021/09/18 07:06:36;;;;;;;4.20;3.17;;;;;;;;;;5047762;28;20091;-71
2021/09/18 07:09:20;;;;;;;4.07;2.85;;;;;;;;;;5047254;28;20040;-72
2021/09/18 07:12:05;;;;;;;4.13;2.75;;;;;;;;;;5046621;28;20048;-72
2021/09/18 07:14:50;;;;;;;3.63;2.70;;;;;;;;;;5028286;28;20537;-75
2021/09/18 07:17:34;;;;;;;5.47;2.95;;;;;;;;;;5029925;28;20040;-71
2021/09/18 07:20:19;;;;;;;3.00;2.40;;;;;;;;;;5046288;28;20134;-72
2021/09/18 07:23:04;;;;;;;3.40;2.40;;;;;;;;;;5019152;28;20047;-72
2021/09/18 07:25:48;;;;;;;4.10;2.45;;;;;;;;;;5047062;28;20048;-72
2021/09/18 07:28:34;;;;;;;3.85;2.45;;;;;;;;;;5031469;28;20079;-72
2021/09/18 07:31:19;;;;;;;4.15;2.65;;;;;;;;;;5046966;28;20040;-72
2021/09/18 07:34:03;;;;;;;3.95;2.40;;;;;;;;;;5045549;28;20102;-75
2021/09/18 07:36:48;;;;;;;4.63;2.70;;;;;;;;;;5045731;28;20043;-72
2021/09/18 07:39:33;;;;;;;3.97;2.72;;;;;;;;;;5031339;28;20505;-72
2021/09/18 07:42:17;;;;;;;3.30;2.40;;;;;;;;;;5026239;28;20521;-72
2021/09/18 07:45:03;;;;;;;3.28;2.53;;;;;;;;;;5026920;28;20108;-73
2021/09/18 07:47:47;;;;;;;4.13;2.50;;;;;;;;;;5026213;28;20041;-72
2021/09/18 07:50:32;;;;;;;2.92;2.13;;;;;;;;;;5019609;28;20086;-73
2021/09/18 07:53:16;;;;;;;3.65;2.58;;;;;;;;;;5045072;28;20525;-72
2021/09/18 07:56:01;;;;;;;3.28;2.30;;;;;;;;;;5047823;28;20031;-73
2021/09/18 07:58:46;;;;;;;2.92;2.20;;;;;;;;;;5047588;28;20116;-72
2021/09/18 08:01:32;;;;;;;3.08;2.20;;;;;;;;;;5047391;28;20048;-75
2021/09/18 08:04:17;;;;;;;3.38;2.28;;;;;;;;;;5047459;28;20098;-72
2021/09/18 08:07:01;;;;;;;3.28;2.40;;;;;;;;;;5045614;28;20042;-71
2021/09/18 08:09:46;;;;;;;4.47;2.35;;;;;;;;;;5045352;28;20449;-72
2021/09/18 08:12:31;;;;;;;3.15;2.33;;;;;;;;;;5044921;28;20048;-74
2021/09/18 08:15:16;;;;;;;4.63;2.60;;;;;;;;;;5043374;28;20060;-70
2021/09/18 08:18:01;;;;;;;3.55;2.30;;;;;;;;;;5039480;28;20413;-70
2021/09/18 08:20:45;;;;;;;2.85;1.92;;;;;;;;;;5044761;28;20125;-70
2021/09/18 08:23:30;;;;;;;3.55;2.28;;;;;;;;;;5046937;28;20556;-70
2021/09/18 08:26:15;;;;;;;3.60;2.45;;;;;;;;;;5044990;28;20095;-72
2021/09/18 08:28:59;;;;;;;3.13;2.38;;;;;;;;;;5045106;28;20039;-70
2021/09/18 08:31:44;;;;;;;5.03;2.90;;;;;;;;;;5045806;28;20067;-70
2021/09/18 08:34:29;;;;;;;3.13;2.40;;;;;;;;;;5043593;28;20055;-70
2021/09/18 08:37:13;;;;;;;3.55;2.13;;;;;;;;;;5045945;28;20048;-71
2021/09/18 08:39:58;;;;;;;3.53;2.25;;;;;;;;;;5037788;28;20043;-71
2021/09/18 08:42:42;;;;;;;4.75;2.50;;;;;;;;;;5025901;28;20063;-72
2021/09/18 08:45:27;;;;;;;3.50;1.95;;;;;;;;;;5031932;28;20960;-71
2021/09/18 08:48:12;;;;;;;3.65;2.15;;;;;;;;;;5031405;28;20171;-71
2021/09/18 08:50:57;;;;;;;3.55;2.20;;;;;;;;;;5025292;28;20156;-71
2021/09/18 08:53:42;;;;;;;2.78;2.10;;;;;;;;;;5043939;28;20227;-71
2021/09/18 08:56:27;;;;;;;3.63;2.47;;;;;;;;;;5046623;28;20082;-71
2021/09/18 08:59:11;;;;;;;2.88;2.00;;;;;;;;;;5046521;28;20044;-71
2021/09/18 09:02:15;;;;;;;3.08;2.10;;;;;;;;;;5042543;28;20075;-72
2021/09/18 09:05:17;;;;;;;3.80;1.98;;;;;;;;;;5041927;28;20037;-72
2021/09/18 09:08:06;;;;;;;3.58;2.20;;;;;;;;;;5047351;28;20091;-71
2021/09/18 09:10:51;;;;;;;3.42;2.30;;;;;;;;;;5034657;28;20052;-72
2021/09/18 09:13:35;;;;;;;3.42;2.20;;;;;;;;;;5029151;28;20492;-72
2021/09/18 09:16:20;;;;;;;2.53;1.88;;;;;;;;;;5043467;28;20032;-72
2021/09/18 09:19:15;;;;;;;3.28;2.00;;;;;;;;;;5054197;28;20065;-75
2021/09/18 09:21:59;;;;;;;4.25;2.20;;;;;;;;;;5033106;28;20427;-72
2021/09/18 09:24:48;;;;;;;3.42;2.30;;;;;;;;;;5051939;28;20522;-74
2021/09/18 09:27:32;;;;;;;2.78;1.92;;;;;;;;;;5047696;28;20043;-73
2021/09/18 09:30:33;;;;;;;3.00;2.35;;;;;;;;;;5043956;28;20138;-72
2021/09/18 09:33:18;;;;;;;2.50;1.90;;;;;;;;;;5048729;28;20094;-72
2021/09/18 09:36:18;;;;;;;3.45;2.20;;;;;;;;;;5055306;28;20115;-72
2021/09/18 09:39:03;;;;;;;2.97;1.90;;;;;;;;;;5047133;28;20071;-72
2021/09/18 09:41:55;;;;;;;3.15;2.13;;;;;;;;;;5052129;28;20051;-71
2021/09/18 09:44:40;;;;;;;3.53;2.30;;;;;;;;;;5038809;28;20043;-71
2021/09/18 09:47:24;;;;;;;4.78;2.13;;;;;;;;;;5045312;28;20547;-72
2021/09/18 09:50:09;;;;;;;2.55;1.90;;;;;;;;;;5030579;28;20035;-74
2021/09/18 09:52:56;;;;;;;3.05;2.03;;;;;;;;;;5043955;28;20098;-71
2021/09/18 09:55:40;;;;;;;2.88;1.95;;;;;;;;;;5039609;28;20589;-72
2021/09/18 09:58:25;;;;;;;2.88;1.98;;;;;;;;;;5019120;28;20109;-71
2021/09/18 10:01:09;;;;;;;2.40;1.60;;;;;;;;;;5041150;28;20536;-72
2021/09/18 10:03:54;;;;;;;2.60;1.80;;;;;;;;;;5044553;28;20043;-72
2021/09/18 10:06:38;;;;;;;3.88;2.17;;;;;;;;;;5045788;28;20081;-72
2021/09/18 10:09:23;;;;;;;3.65;1.80;;;;;;;;;;5042520;28;20039;-72
2021/09/18 10:12:08;;;;;;;3.05;2.03;;;;;;;;;;5030676;28;20048;-71
2021/09/18 10:14:53;;;;;;;3.00;1.88;;;;;;;;;;5040157;28;20064;-71
2021/09/18 10:17:41;;;;;;;2.80;1.75;;;;;;;;;;5028997;28;20886;-70
2021/09/18 10:23:19;;;;;;;3.45;2.08;;;;;;;;;;5045544;28;20117;-71
2021/09/18 10:26:05;;;;;;;2.92;2.00;;;;;;;;;;5057576;28;20167;-71
2021/09/18 10:28:49;;;;;;;3.80;2.10;;;;;;;;;;5054528;28;20085;-71
2021/09/18 10:31:34;;;;;;;3.40;1.90;;;;;;;;;;5027912;28;20059;-72
2021/09/18 10:34:22;;;;;;;2.60;1.92;;;;;;;;;;5045246;28;20059;-71
2021/09/18 10:37:07;;;;;;;3.95;1.98;;;;;;;;;;5044892;28;20112;-72
2021/09/18 10:40:02;;;;;;;5.95;2.40;;;;;;;;;;5050485;28;20098;-72
2021/09/18 10:42:47;;;;;;;3.67;2.20;;;;;;;;;;5068116;28;20870;-71
2021/09/18 10:45:39;;;;;;;2.67;1.80;;;;;;;;;;5055083;28;20094;-71
2021/09/18 10:48:37;;;;;;;2.45;1.80;;;;;;;;;;5038349;28;20050;-71
2021/09/18 10:51:32;;;;;;;2.70;2.00;;;;;;;;;;5044020;28;20043;-72
2021/09/18 10:54:16;;;;;;;3.25;2.00;;;;;;;;;;5049213;28;20048;-72
2021/09/18 10:57:04;;;;;;;2.22;1.70;;;;;;;;;;5046320;28;20792;-71
2021/09/18 10:59:49;;;;;;;2.58;1.80;;;;;;;;;;5050383;28;20055;-71
2021/09/18 11:02:34;;;;;;;2.78;1.67;;;;;;;;;;5051982;28;20043;-71
2021/09/18 11:05:18;;;;;;;2.97;2.08;;;;;;;;;;5061216;28;20043;-71
2021/09/18 11:08:12;;;;;;;2.75;1.77;;;;;;;;;;5048672;28;20044;-71
2021/09/18 11:11:00;;;;;;;3.15;1.80;;;;;;;;;;5041075;28;20048;-71
2021/09/18 11:13:45;;;;;;;3.63;1.83;;;;;;;;;;5050218;28;20052;-72
2021/09/18 11:16:34;;;;;;;2.83;1.80;;;;;;;;;;5063151;28;20119;-71
2021/09/18 11:19:20;;;;;;;2.38;1.52;;;;;;;;;;5050304;28;20083;-72
2021/09/18 11:22:11;;;;;;;2.55;1.92;;;;;;;;;;5037448;28;20424;-75
2021/09/18 11:25:16;;;;;;;3.00;1.90;;;;;;;;;;5037780;28;20853;-71
2021/09/18 11:28:01;;;;;;;4.45;2.22;;;;;;;;;;5050792;28;20048;-71
2021/09/18 11:30:52;;;;;;;4.45;1.90;;;;;;;;;;5049467;28;20464;-71
2021/09/18 11:44:14;;;;;;;2.88;1.90;;;;;;;;;;5082685;27;21336;-72
2021/09/18 11:47:03;;;;;;;2.35;1.48;;;;;;;;;;5064337;28;20055;-72
2021/09/18 11:49:48;;;;;;;3.38;1.70;;;;;;;;;;5063733;28;20421;-72
2021/09/18 11:52:36;;;;;;;2.67;1.55;;;;;;;;;;5073556;28;20051;-72
2021/09/18 11:55:25;;;;;;;3.50;1.73;;;;;;;;;;5072877;28;20055;-72
2021/09/18 11:58:16;;;;;;;2.92;1.63;;;;;;;;;;5065252;28;20515;-71
2021/09/18 12:01:01;;;;;;;2.70;1.60;;;;;;;;;;5074107;28;20044;-72
2021/09/18 12:03:46;;;;;;;3.25;1.73;;;;;;;;;;5074956;28;20055;-71
2021/09/18 12:06:39;;;;;;;3.42;1.90;;;;;;;;;;5071230;28;20078;-75
2021/09/18 12:09:27;;;;;;;3.08;1.85;;;;;;;;;;5082811;28;20737;-71
2021/09/18 12:12:12;;;;;;;2.92;1.60;;;;;;;;;;5087625;28;20043;-71
2021/09/18 12:14:56;;;;;;;3.03;1.63;;;;;;;;;;5087919;28;20109;-72
2021/09/18 12:17:42;;;;;;;4.45;1.85;;;;;;;;;;5081912;28;20115;-71
2021/09/18 12:20:26;;;;;;;3.72;1.90;;;;;;;;;;5099239;28;20035;-71
2021/09/18 12:23:10;;;;;;;3.22;1.85;;;;;;;;;;5076086;28;20270;-71
2021/09/18 12:25:56;;;;;;;4.97;1.95;;;;;;;;;;5080002;28;20047;-71
2021/09/18 12:28:40;;;;;;;2.33;1.60;;;;;;;;;;5083091;28;20101;-71
2021/09/18 12:31:25;;;;;;;2.55;1.85;;;;;;;;;;5079463;28;20058;-81
2021/09/18 12:34:11;;;;;;;3.03;1.70;;;;;;;;;;5094838;28;20118;-81
2021/09/18 12:37:01;;;;;;;3.83;2.10;;;;;;;;;;5087500;28;20039;-80
2021/09/18 12:39:46;;;;;;;2.77;1.90;;;;;;;;;;5063537;28;20051;-81
2021/09/18 12:42:30;;;;;;;3.35;1.70;;;;;;;;;;5082929;28;20092;-81
2021/09/18 12:45:25;;;;;;;3.88;2.00;;;;;;;;;;5067095;28;20059;-81
2021/09/18 12:48:20;;;;;;;2.80;1.60;;;;;;;;;;5066668;28;20109;-80
2021/09/18 12:51:05;;;;;;;2.33;1.80;;;;;;;;;;5077910;28;20043;-81
2021/09/18 12:53:50;;;;;;;4.38;1.90;;;;;;;;;;5066803;28;20050;-81
2021/09/18 12:56:38;;;;;;;3.53;1.55;;;;;;;;;;5061601;28;20043;-81
2021/09/18 12:59:23;;;;;;;3.03;2.03;;;;;;;;;;5062571;28;20047;-81
2021/09/18 13:02:08;;;;;;;5.07;2.00;;;;;;;;;;5048395;28;20703;-80
2021/09/18 13:04:52;;;;;;;3.22;1.65;;;;;;;;;;5064017;28;20075;-78
2021/09/18 13:07:37;;;;;;;3.15;1.73;;;;;;;;;;5067005;28;20039;-77
2021/09/18 13:10:25;;;;;;;3.83;1.85;;;;;;;;;;5063717;28;20097;-78
2021/09/18 13:13:09;;;;;;;4.15;2.00;;;;;;;;;;5068275;28;20055;-78
2021/09/18 13:16:03;;;;;;;2.58;1.80;;;;;;;;;;5081153;28;20110;-79
2021/09/18 13:19:04;;;;;;;2.53;1.80;;;;;;;;;;5068153;28;20067;-76
2021/09/18 13:21:49;;;;;;;4.68;2.22;;;;;;;;;;5065734;28;20046;-75
2021/09/18 13:24:33;;;;;;;3.05;1.80;;;;;;;;;;5051278;28;20065;-76
2021/09/18 13:27:18;;;;;;;4.25;2.30;;;;;;;;;;5058064;28;20067;-75
2021/09/18 13:30:03;;;;;;;3.85;2.00;;;;;;;;;;5063912;28;20039;-76
2021/09/18 13:32:48;;;;;;;4.22;1.60;;;;;;;;;;5049451;28;20114;-75
2021/09/18 13:35:32;;;;;;;3.20;2.00;;;;;;;;;;5069455;28;20059;-75
2021/09/18 13:38:17;;;;;;;3.30;1.88;;;;;;;;;;5069969;28;20079;-75
2021/09/18 13:41:01;;;;;;;4.07;1.90;;;;;;;;;;5049092;28;20093;-74
2021/09/18 13:43:46;;;;;;;4.38;2.05;;;;;;;;;;5070740;28;20051;-75
2021/09/18 13:46:30;;;;;;;2.60;1.77;;;;;;;;;;5062443;28;20039;-75
2021/09/18 13:49:15;;;;;;;2.97;1.83;;;;;;;;;;5070470;28;20124;-74
2021/09/18 13:52:03;;;;;;;3.97;2.10;;;;;;;;;;5075317;28;20503;-75
2021/09/18 13:54:48;;;;;;;3.50;1.75;;;;;;;;;;5051471;28;20067;-75
2021/09/18 13:57:32;;;;;;;4.57;1.77;;;;;;;;;;5064642;28;20035;-75
2021/09/18 14:00:17;;;;;;;4.38;2.00;;;;;;;;;;5054096;28;20394;-75
2021/09/18 14:03:03;;;;;;;3.95;1.92;;;;;;;;;;5058947;28;20074;-75
2021/09/18 14:05:48;;;;;;;4.30;2.08;;;;;;;;;;5051151;28;20117;-75
2021/09/18 14:08:33;;;;;;;4.38;2.10;;;;;;;;;;5060115;28;20062;-74
2021/09/18 14:11:17;;;;;;;3.20;1.90;;;;;;;;;;5061070;28;20110;-75
2021/09/18 14:14:02;;;;;;;3.63;1.80;;;;;;;;;;5045254;28;20052;-75
2021/09/18 14:16:49;;;;;;;2.38;1.77;;;;;;;;;;5050851;28;20032;-75
2021/09/18 14:19:34;;;;;;;2.88;1.70;;;;;;;;;;5044896;28;20209;-75
2021/09/18 14:22:18;;;;;;;4.32;1.88;;;;;;;;;;5046516;28;20043;-75
2021/09/18 14:25:03;;;;;;;3.45;1.70;;;;;;;;;;5046669;28;20039;-75
2021/09/18 14:27:48;;;;;;;4.13;2.15;;;;;;;;;;5045480;28;20505;-75
2021/09/18 14:30:32;;;;;;;4.95;2.00;;;;;;;;;;5046056;28;20124;-75
2021/09/18 14:33:17;;;;;;;5.57;2.00;;;;;;;;;;5044557;28;20421;-74
2021/09/18 14:36:01;;;;;;;4.32;2.08;;;;;;;;;;5049400;28;20044;-74
2021/09/18 14:38:46;;;;;;;3.42;1.98;;;;;;;;;;5083105;28;20107;-75
2021/09/18 14:41:30;;;;;;;3.45;1.90;;;;;;;;;;5045990;28;20044;-75
2021/09/18 14:44:15;;;;;;;5.75;2.20;;;;;;;;;;5077567;28;20097;-74
2021/09/18 14:46:59;;;;;;;4.50;2.17;;;;;;;;;;5043475;28;20562;-76
2021/09/18 14:49:44;;;;;;;4.05;2.05;;;;;;;;;;5057424;28;20051;-76
2021/09/18 14:52:28;;;;;;;6.15;2.53;;;;;;;;;;5065248;28;20602;-75
2021/09/18 14:55:12;;;;;;;4.50;1.95;;;;;;;;;;5084484;28;20086;-75
2021/09/18 14:57:57;;;;;;;3.53;1.77;;;;;;;;;;5064430;28;20460;-76
2021/09/18 15:00:42;;;;;;;3.95;2.03;;;;;;;;;;5070086;28;20191;-75
2021/09/18 15:03:26;;;;;;;2.85;1.83;;;;;;;;;;5063060;28;20089;-75
2021/09/18 15:06:11;;;;;;;5.05;2.30;;;;;;;;;;5049856;28;20029;-75
2021/09/18 15:08:55;;;;;;;3.83;2.20;;;;;;;;;;5071982;28;20067;-76
2021/09/18 15:11:40;;;;;;;3.92;2.00;;;;;;;;;;5063419;28;20570;-76
2021/09/18 15:14:25;;;;;;;3.22;1.98;;;;;;;;;;5063160;28;20047;-75
2021/09/18 15:17:09;;;;;;;3.45;2.13;;;;;;;;;;5076285;28;20214;-76
2021/09/18 15:19:54;;;;;;;3.42;1.92;;;;;;;;;;5066621;28;20993;-75
2021/09/18 15:22:38;;;;;;;3.25;1.70;;;;;;;;;;5044661;28;20302;-75
2021/09/18 15:25:23;;;;;;;4.57;2.20;;;;;;;;;;5061311;28;20717;-75
2021/09/18 15:28:07;;;;;;;3.28;2.00;;;;;;;;;;5049445;28;20035;-76
2021/09/18 15:30:53;;;;;;;4.00;1.90;;;;;;;;;;5068197;28;20082;-75
2021/09/18 15:33:37;;;;;;;4.35;2.28;;;;;;;;;;5069656;28;20447;-76
2021/09/18 15:36:22;;;;;;;5.10;2.20;;;;;;;;;;5082089;28;20039;-76
2021/09/18 15:39:06;;;;;;;5.65;2.30;;;;;;;;;;5081692;28;20119;-75
2021/09/18 15:41:51;;;;;;;6.10;2.30;;;;;;;;;;5065085;28;20726;-76
2021/09/18 15:44:36;;;;;;;5.03;2.22;;;;;;;;;;5050137;28;20085;-76
2021/09/18 15:47:21;;;;;;;4.20;2.28;;;;;;;;;;5065520;28;20076;-75
2021/09/18 15:50:06;;;;;;;4.57;2.00;;;;;;;;;;5075144;28;20556;-75
2021/09/18 15:52:51;;;;;;;4.05;2.60;;;;;;;;;;5065996;28;20055;-75
2021/09/18 15:55:36;;;;;;;3.10;2.20;;;;;;;;;;5063983;28;20066;-75
2021/09/18 15:58:21;;;;;;;4.03;2.10;;;;;;;;;;5049214;28;20608;-75
2021/09/18 16:01:06;;;;;;;5.22;2.13;;;;;;;;;;5068247;28;20074;-75
2021/09/18 16:03:50;;;;;;;3.42;2.22;;;;;;;;;;5069336;28;20129;-75
2021/09/18 16:06:35;;;;;;;4.72;2.38;;;;;;;;;;5070255;28;20109;-75
2021/09/18 16:09:19;;;;;;;4.00;2.30;;;;;;;;;;5081716;28;20047;-76
2021/09/18 16:12:04;;;;;;;5.57;2.30;;;;;;;;;;5082397;28;20069;-75
2021/09/18 16:14:49;;;;;;;6.53;2.60;;;;;;;;;;5043811;28;20397;-74
2021/09/18 16:17:33;;;;;;;5.63;2.35;;;;;;;;;;5043514;28;20036;-75
2021/09/18 16:20:18;;;;;;;5.45;2.28;;;;;;;;;;5078831;28;20047;-75
2021/09/18 16:23:03;;;;;;;4.60;2.40;;;;;;;;;;5068390;28;20039;-75
2021/09/18 16:25:48;;;;;;;3.95;2.33;;;;;;;;;;5061026;28;20127;-76
2021/09/18 16:28:32;;;;;;;5.40;2.25;;;;;;;;;;5087555;28;20039;-76
2021/09/18 16:31:17;;;;;;;4.25;2.30;;;;;;;;;;5088632;28;20062;-75
2021/09/18 16:34:01;;;;;;;5.00;2.50;;;;;;;;;;5064154;28;20145;-75
2021/09/18 16:36:47;;;;;;;5.78;2.75;;;;;;;;;;5066247;28;20141;-76
2021/09/18 16:39:32;;;;;;;3.90;2.22;;;;;;;;;;5052833;28;20110;-75
2021/09/18 16:42:16;;;;;;;5.68;2.38;;;;;;;;;;5086913;28;20093;-75
2021/09/18 16:45:01;;;;;;;5.88;2.53;;;;;;;;;;5083134;28;20038;-75